createdAt,value
2022-08-18T00:32:35.348Z,67.24
2022-08-18T00:33:35.357Z,67.14
2022-08-18T00:34:35.370Z,67.14
2022-08-18T00:35:35.388Z,67.14
2022-08-18T00:36:35.393Z,67.82
2022-08-18T00:37:35.403Z,67.53
2022-08-18T00:38:35.446Z,67.43
2022-08-18T00:39:38.439Z,67.33
2022-08-18T00:40:37.959Z,67.53
2022-08-18T00:41:35.461Z,67.24
2022-08-18T00:42:35.471Z,67.53
2022-08-18T00:43:35.477Z,67.33
2022-08-18T00:44:35.489Z,67.72
2022-08-18T00:45:35.506Z,67.63
2022-08-18T00:46:35.520Z,67.53
2022-08-18T00:48:48.460Z,67.43
2022-08-18T00:49:43.144Z,67.72
2022-08-18T00:50:43.159Z,67.63
2022-08-18T00:51:43.163Z,67.53
2022-08-18T00:52:43.177Z,67.63
2022-08-18T00:53:43.189Z,67.43
2022-08-18T00:54:43.208Z,68.11
2022-08-18T00:55:43.797Z,68.21
2022-08-18T00:56:43.228Z,68.30
2022-08-18T00:57:43.240Z,68.21
2022-08-18T00:58:43.253Z,68.01
2022-08-18T00:59:43.266Z,68.11
2022-08-18T01:00:43.368Z,67.91
2022-08-18T01:01:43.299Z,67.82
2022-08-18T01:02:43.312Z,68.49
2022-08-18T01:03:43.316Z,68.49
2022-08-18T01:04:43.331Z,68.30
2022-08-18T01:05:43.352Z,68.49
2022-08-18T01:06:43.364Z,68.69
2022-08-18T01:07:43.370Z,68.59
2022-08-18T01:08:43.389Z,68.69
2022-08-18T01:09:43.397Z,68.40
2022-08-18T01:10:43.408Z,68.49
2022-08-18T01:11:43.429Z,68.85
2022-08-18T01:12:45.468Z,69.24
2022-08-18T01:13:43.449Z,69.33
2022-08-18T01:14:43.461Z,69.53
2022-08-18T01:15:43.473Z,69.53
2022-08-18T01:16:56.825Z,69.33
2022-08-18T01:17:43.513Z,69.24
2022-08-18T01:18:43.512Z,69.24
2022-08-18T01:19:43.534Z,69.43
2022-08-18T01:20:43.538Z,69.82
2022-08-18T01:21:43.560Z,69.82
2022-08-18T01:22:43.575Z,69.82
2022-08-18T01:23:43.586Z,69.82
2022-08-18T01:24:43.599Z,69.82
2022-08-18T01:25:43.603Z,69.82
2022-08-18T01:26:44.935Z,70.20
2022-08-18T01:27:43.637Z,69.62
2022-08-18T01:28:43.643Z,69.82
2022-08-18T01:29:43.756Z,69.82
2022-08-18T01:30:43.668Z,69.72
2022-08-18T01:31:54.340Z,69.82
2022-08-18T01:32:43.702Z,69.72
2022-08-18T01:33:43.717Z,69.82
2022-08-18T01:34:43.720Z,69.92
2022-08-18T01:35:43.732Z,69.62
2022-08-18T01:36:43.746Z,69.24
2022-08-18T01:37:43.758Z,69.24
2022-08-18T01:38:43.774Z,69.24
2022-08-18T01:41:21.329Z,69.68
2022-08-18T01:41:24.575Z,69.98
2022-08-18T01:41:43.859Z,70.07
2022-08-18T01:42:43.829Z,70.17
2022-08-18T01:43:43.837Z,69.98
2022-08-18T01:44:43.855Z,70.17
2022-08-18T01:45:43.871Z,70.07
2022-08-18T01:46:43.873Z,70.07
2022-08-18T01:47:48.015Z,69.98
2022-08-18T01:48:43.900Z,70.26
2022-08-18T01:49:43.932Z,70.56
2022-08-18T01:50:43.924Z,70.26
2022-08-18T01:51:43.946Z,70.62
2022-08-18T01:52:43.957Z,70.32
2022-08-18T01:53:43.974Z,70.32
2022-08-18T01:54:43.975Z,70.23
2022-08-18T01:55:43.990Z,71.00
2022-08-18T01:56:44.010Z,71.10
2022-08-18T01:57:44.015Z,70.62
2022-08-18T01:58:44.028Z,71.20
2022-08-18T01:59:44.046Z,71.48
2022-08-18T02:00:44.126Z,71.58
2022-08-18T02:01:48.221Z,71.48
2022-08-18T02:02:44.081Z,71.48
2022-08-18T02:03:44.090Z,71.48
2022-08-18T02:04:44.103Z,71.68
2022-08-18T02:05:44.123Z,71.00
2022-08-18T02:06:47.765Z,71.20
2022-08-18T02:07:49.177Z,71.30
2022-08-18T02:08:46.457Z,71.48
2022-08-18T02:09:44.173Z,70.90
2022-08-18T02:10:44.178Z,71.48
2022-08-18T02:11:44.198Z,71.68
2022-08-18T02:12:44.215Z,71.58
2022-08-18T02:13:44.216Z,71.94
2022-08-18T02:14:44.229Z,71.94
2022-08-18T02:15:44.242Z,71.45
2022-08-18T02:16:44.261Z,71.55
2022-08-18T02:17:44.268Z,71.45
2022-08-18T02:18:47.711Z,71.55
2022-08-18T02:19:44.299Z,71.74
2022-08-18T02:20:44.857Z,71.84
2022-08-18T02:21:44.325Z,71.74
2022-08-18T02:22:44.328Z,71.55
2022-08-18T02:23:46.929Z,71.55
2022-08-18T02:24:44.364Z,71.74
2022-08-18T02:25:44.375Z,71.74
2022-08-18T02:26:44.380Z,71.94
2022-08-18T02:27:44.443Z,71.94
2022-08-18T02:28:44.415Z,71.94
2022-08-18T02:29:44.433Z,71.84
2022-08-18T02:30:44.431Z,71.78
2022-08-18T02:31:44.444Z,71.48
2022-08-18T02:32:44.453Z,71.78
2022-08-18T02:33:51.848Z,71.88
2022-08-18T02:34:44.478Z,71.88
2022-08-18T02:35:44.492Z,71.58
2022-08-18T02:36:44.509Z,71.88
2022-08-18T02:37:44.518Z,71.48
2022-08-18T02:38:44.529Z,71.68
2022-08-18T02:39:44.628Z,71.78
2022-08-18T02:40:44.554Z,71.78
2022-08-18T02:41:44.576Z,71.84
2022-08-18T02:42:44.577Z,71.88
2022-08-18T02:43:44.600Z,71.78
2022-08-18T02:44:44.610Z,71.88
2022-08-18T02:45:44.621Z,71.78
2022-08-18T02:46:44.629Z,71.68
2022-08-18T02:47:44.649Z,71.88
2022-08-18T02:48:44.662Z,71.58
2022-08-18T02:49:44.665Z,71.68
2022-08-18T02:50:44.679Z,71.78
2022-08-18T02:51:44.689Z,71.88
2022-08-18T02:52:44.711Z,71.88
2022-08-18T02:53:44.722Z,71.39
2022-08-18T02:54:44.727Z,71.68
2022-08-18T02:55:44.739Z,71.88
2022-08-18T02:59:10.638Z,71.78
2022-08-18T03:00:10.629Z,71.88
2022-08-18T03:01:10.708Z,71.78
2022-08-18T03:02:10.659Z,71.68
2022-08-18T03:03:10.666Z,71.68
2022-08-18T03:05:23.295Z,71.39
2022-08-18T03:06:23.304Z,71.58
2022-08-18T03:07:23.310Z,71.78
2022-08-18T03:08:23.327Z,71.48
2022-08-18T03:11:01.003Z,71.64
2022-08-18T03:12:01.011Z,71.74
2022-08-18T03:13:01.018Z,71.55
2022-08-18T03:14:01.032Z,71.55
2022-08-18T03:15:01.041Z,71.64
2022-08-18T03:16:01.061Z,71.74
2022-08-18T03:25:29.451Z,72.03
2022-08-18T03:26:29.471Z,72.03
2022-08-18T03:27:29.483Z,71.55
2022-08-18T03:28:29.492Z,71.74
2022-08-18T03:29:32.649Z,71.74
2022-08-18T03:30:29.517Z,71.94
2022-08-18T03:31:29.524Z,72.42
2022-08-18T03:32:29.535Z,72.52
2022-08-18T03:33:29.547Z,71.94
2022-08-18T03:34:29.560Z,72.22
2022-08-18T03:35:29.572Z,72.42
2022-08-18T03:36:29.589Z,72.71
2022-08-18T03:37:29.603Z,72.80
2022-08-18T03:38:29.614Z,72.52
2022-08-18T03:39:29.694Z,72.48
2022-08-18T03:40:29.638Z,72.96
2022-08-18T03:41:57.166Z,72.96
2022-08-18T03:42:29.664Z,73.06
2022-08-18T03:43:51.210Z,73.06
2022-08-18T03:44:29.689Z,73.44
2022-08-18T03:45:29.690Z,73.15
2022-08-18T03:46:29.712Z,73.73
2022-08-18T03:47:29.722Z,73.44
2022-08-18T03:48:29.727Z,73.83
2022-08-18T03:49:29.742Z,74.12
2022-08-18T03:50:29.753Z,74.41
2022-08-18T03:51:29.772Z,74.51
2022-08-18T03:52:29.784Z,74.89
2022-08-18T03:53:29.794Z,74.99
2022-08-18T03:54:29.808Z,75.27
2022-08-18T03:55:29.813Z,74.85
2022-08-18T03:56:29.831Z,75.09
2022-08-18T03:57:29.843Z,75.34
2022-08-18T03:58:29.854Z,75.53
2022-08-18T03:59:29.869Z,75.43
2022-08-18T04:00:29.880Z,75.34
2022-08-18T04:01:29.968Z,75.34
2022-08-18T04:02:29.902Z,75.34
2022-08-18T04:03:29.915Z,75.24
2022-08-18T04:04:29.926Z,75.34
2022-08-18T04:05:29.939Z,75.57
2022-08-18T04:06:30.659Z,75.27
2022-08-18T04:07:29.963Z,75.18
2022-08-18T04:08:29.974Z,75.47
2022-08-18T04:09:29.991Z,75.57
2022-08-18T04:10:29.990Z,75.37
2022-08-18T04:11:30.003Z,75.18
2022-08-18T04:12:30.018Z,75.18
2022-08-18T04:13:30.034Z,74.79
2022-08-18T04:14:30.047Z,74.89
2022-08-18T04:15:30.063Z,74.89
2022-08-18T04:16:30.062Z,74.89
2022-08-18T04:17:30.074Z,75.18
2022-08-18T04:18:30.088Z,74.69
2022-08-18T04:19:30.105Z,74.99
2022-08-18T04:20:30.111Z,75.18
2022-08-18T04:21:30.121Z,74.89
2022-08-18T04:22:30.135Z,74.89
2022-08-18T04:23:30.146Z,74.60
2022-08-18T04:24:31.236Z,75.18
2022-08-18T04:25:32.879Z,74.99
2022-08-18T04:26:30.183Z,75.09
2022-08-18T04:27:30.193Z,75.37
2022-08-18T04:28:30.213Z,75.18
2022-08-18T04:29:30.218Z,75.27
2022-08-18T04:30:30.230Z,75.37
2022-08-18T04:31:30.247Z,75.37
2022-08-18T04:32:30.437Z,75.85
2022-08-18T04:33:30.271Z,75.82
2022-08-18T04:34:30.275Z,75.95
2022-08-18T04:35:30.290Z,75.95
2022-08-18T04:36:30.306Z,76.24
2022-08-18T04:37:30.312Z,76.68
2022-08-18T04:38:30.331Z,76.78
2022-08-18T04:39:30.450Z,76.82
2022-08-18T04:40:30.447Z,76.92
2022-08-18T04:41:30.360Z,76.59
2022-08-18T04:42:30.369Z,77.21
2022-08-18T04:43:30.390Z,77.30
2022-08-18T04:44:30.392Z,77.59
2022-08-18T04:45:30.413Z,77.50
2022-08-18T04:46:30.424Z,77.69
2022-08-18T04:47:30.431Z,78.17
2022-08-18T04:48:30.447Z,78.56
2022-08-18T04:49:30.452Z,79.24
2022-08-18T04:50:30.466Z,79.04
2022-08-18T04:52:36.564Z,79.52
2022-08-18T04:52:39.847Z,79.91
2022-08-18T04:53:30.507Z,80.00
2022-08-18T04:54:30.513Z,80.30
2022-08-18T04:55:30.532Z,80.10
2022-08-18T04:56:30.538Z,81.07
2022-08-18T04:57:33.017Z,81.84
2022-08-18T04:58:30.568Z,81.88
2022-08-18T04:59:30.579Z,81.65
2022-08-18T05:00:30.597Z,81.88
2022-08-18T05:01:30.687Z,82.26
2022-08-18T05:02:30.607Z,81.98
2022-08-18T05:03:30.619Z,82.56
2022-08-18T05:04:30.633Z,82.36
2022-08-18T05:05:30.650Z,82.84
2022-08-18T05:06:30.654Z,82.75
2022-08-18T05:07:30.679Z,82.84
2022-08-18T05:08:30.677Z,82.65
2022-08-18T05:09:30.690Z,82.75
2022-08-18T05:10:30.708Z,83.23
2022-08-18T05:11:30.715Z,83.23
2022-08-18T05:12:30.725Z,82.94
2022-08-18T05:13:30.746Z,83.42
2022-08-18T05:14:30.750Z,83.33
2022-08-18T05:15:46.872Z,83.33
2022-08-18T05:16:30.772Z,83.37
2022-08-18T05:17:31.205Z,83.37
2022-08-18T05:18:30.799Z,83.23
2022-08-18T05:19:30.808Z,83.23
2022-08-18T05:20:30.823Z,83.27
2022-08-18T05:21:30.840Z,84.10
2022-08-18T05:22:31.765Z,84.10
2022-08-18T05:23:30.866Z,83.62
2022-08-18T05:24:37.715Z,83.72
2022-08-18T05:25:30.891Z,83.75
2022-08-18T05:26:30.895Z,83.52
2022-08-18T05:27:30.914Z,83.72
2022-08-18T05:28:30.918Z,83.72
2022-08-18T05:29:30.934Z,83.75
2022-08-18T05:30:30.942Z,83.62
2022-08-18T05:31:30.962Z,84.24
2022-08-18T05:32:47.449Z,84.24
2022-08-18T05:33:30.979Z,83.81
2022-08-18T05:34:30.991Z,84.14
2022-08-18T05:35:31.005Z,84.20
2022-08-18T05:36:31.014Z,84.48
2022-08-18T05:37:31.030Z,84.43
2022-08-18T05:38:31.049Z,83.72
2022-08-18T05:39:31.128Z,84.10
2022-08-18T05:40:31.072Z,83.91
2022-08-18T05:41:31.076Z,84.43
2022-08-18T05:42:31.091Z,83.75
2022-08-18T05:43:31.100Z,83.75
2022-08-18T05:44:31.120Z,83.85
2022-08-18T05:45:31.131Z,84.33
2022-08-18T05:46:31.139Z,84.24
2022-08-18T05:47:31.158Z,84.24
2022-08-18T05:48:31.160Z,83.85
2022-08-18T05:49:31.181Z,84.05
2022-08-18T05:50:31.193Z,83.75
2022-08-18T05:51:31.205Z,84.05
2022-08-18T05:52:31.215Z,84.24
2022-08-18T05:53:31.229Z,84.24
2022-08-18T05:54:31.237Z,84.05
2022-08-18T05:55:31.247Z,84.05
2022-08-18T05:56:31.266Z,84.33
2022-08-18T05:57:31.270Z,83.95
2022-08-18T05:58:33.526Z,83.56
2022-08-18T05:59:31.297Z,83.56
2022-08-18T06:00:31.307Z,83.56
2022-08-18T06:01:31.323Z,83.37
2022-08-18T06:02:31.427Z,83.18
2022-08-18T06:03:44.879Z,83.41
2022-08-18T06:04:31.367Z,83.51
2022-08-18T06:05:31.373Z,83.41
2022-08-18T06:06:31.381Z,83.12
2022-08-18T06:07:33.397Z,83.31
2022-08-18T06:08:31.406Z,83.41
2022-08-18T06:09:31.420Z,82.64
2022-08-18T06:10:31.437Z,82.54
2022-08-18T06:11:31.444Z,82.64
2022-08-18T06:12:31.453Z,82.83
2022-08-18T06:13:31.476Z,82.54
2022-08-18T06:14:31.488Z,82.54
2022-08-18T06:15:31.499Z,82.35
2022-08-18T06:16:31.511Z,82.54
2022-08-18T06:17:31.516Z,82.25
2022-08-18T06:18:31.541Z,82.35
2022-08-18T06:19:31.550Z,82.25
2022-08-18T06:20:31.559Z,82.25
2022-08-18T06:21:34.488Z,81.96
2022-08-18T06:22:31.691Z,82.06
2022-08-18T06:23:31.599Z,82.06
2022-08-18T06:24:31.611Z,82.15
2022-08-18T06:25:31.614Z,82.06
2022-08-18T06:26:31.630Z,82.15
2022-08-18T06:27:31.649Z,82.06
2022-08-18T06:28:31.654Z,81.48
2022-08-18T06:29:31.672Z,81.38
2022-08-18T06:30:31.688Z,81.38
2022-08-18T06:31:31.692Z,81.57
2022-08-18T06:32:31.701Z,81.42
2022-08-18T06:33:31.732Z,81.67
2022-08-18T06:34:31.728Z,81.57
2022-08-18T06:35:31.742Z,81.81
2022-08-18T06:36:31.762Z,81.42
2022-08-18T06:37:31.768Z,81.52
2022-08-18T06:38:31.782Z,81.23
2022-08-18T06:39:31.865Z,81.13
2022-08-18T06:40:31.810Z,81.62
2022-08-18T06:41:41.566Z,82.00
2022-08-18T06:42:31.837Z,81.52
2022-08-18T06:43:31.851Z,81.32
2022-08-18T06:44:31.861Z,81.23
2022-08-18T06:45:33.918Z,81.32
2022-08-18T06:46:31.880Z,81.13
2022-08-18T06:47:31.901Z,80.94
2022-08-18T06:48:31.913Z,80.65
2022-08-18T06:49:31.924Z,81.13
2022-08-18T06:50:31.938Z,81.32
2022-08-18T06:51:31.943Z,81.04
2022-08-18T06:52:31.959Z,81.13
2022-08-18T06:53:31.975Z,81.04
2022-08-18T06:54:31.992Z,80.46
2022-08-18T06:55:31.997Z,80.55
2022-08-18T06:56:32.016Z,80.36
2022-08-18T06:57:32.021Z,80.30
2022-08-18T06:58:32.033Z,80.40
2022-08-18T06:59:32.053Z,80.20
2022-08-18T07:00:32.632Z,80.01
2022-08-18T07:01:32.146Z,80.20
2022-08-18T07:02:32.085Z,79.91
2022-08-18T07:03:32.099Z,79.62
2022-08-18T07:04:32.117Z,79.82
2022-08-18T07:05:32.125Z,80.40
2022-08-18T07:06:32.140Z,79.91
2022-08-18T07:07:39.922Z,79.43
2022-08-18T07:08:32.173Z,79.43
2022-08-18T07:09:32.183Z,79.62
2022-08-18T07:10:32.202Z,79.43
2022-08-18T07:11:32.207Z,79.72
2022-08-18T07:12:32.994Z,79.24
2022-08-18T07:13:32.229Z,79.62
2022-08-18T07:14:32.243Z,79.33
2022-08-18T07:15:32.257Z,79.43
2022-08-18T07:16:54.988Z,79.24
2022-08-18T07:17:42.862Z,78.69
2022-08-18T07:18:32.296Z,78.99
2022-08-18T07:19:32.311Z,79.17
2022-08-18T07:20:32.331Z,78.79
2022-08-18T07:21:32.335Z,78.79
2022-08-18T07:22:39.387Z,78.21
2022-08-18T07:23:32.370Z,78.50
2022-08-18T07:24:32.382Z,77.92
2022-08-18T07:25:32.390Z,78.15
2022-08-18T07:26:32.411Z,78.05
2022-08-18T07:27:32.418Z,77.67
2022-08-18T07:28:32.435Z,77.67
2022-08-18T07:29:32.443Z,77.47
2022-08-18T07:30:32.463Z,77.28
2022-08-18T07:31:32.472Z,77.19
2022-08-18T07:32:32.490Z,77.19
2022-08-18T07:33:32.505Z,76.70
2022-08-18T07:34:32.511Z,77.19
2022-08-18T07:35:32.526Z,76.70
2022-08-18T07:36:32.544Z,76.60
2022-08-18T07:37:32.567Z,76.25
2022-08-18T07:38:42.472Z,76.15
2022-08-18T07:39:32.645Z,76.54
2022-08-18T07:40:32.602Z,75.67
2022-08-18T07:41:32.613Z,75.77
2022-08-18T07:42:53.865Z,75.67
2022-08-18T07:43:32.643Z,75.09
2022-08-18T07:44:32.656Z,75.09
2022-08-18T07:45:32.662Z,75.48
2022-08-18T07:46:32.678Z,75.28
2022-08-18T07:47:32.698Z,75.19
2022-08-18T07:48:40.423Z,75.38
2022-08-18T07:49:32.725Z,75.38
2022-08-18T07:50:58.457Z,75.09
2022-08-18T07:51:37.115Z,74.90
2022-08-18T07:52:36.099Z,75.19
2022-08-18T07:53:32.773Z,75.38
2022-08-18T07:54:49.788Z,74.70
2022-08-18T07:55:32.802Z,74.60
2022-08-18T07:56:32.817Z,74.99
2022-08-18T07:57:32.831Z,74.60
2022-08-18T07:58:32.852Z,74.70
2022-08-18T07:59:32.866Z,74.60
2022-08-18T08:00:57.355Z,74.32
2022-08-18T08:01:33.585Z,74.22
2022-08-18T08:02:34.118Z,73.93
2022-08-18T08:03:32.922Z,73.86
2022-08-18T08:04:32.926Z,74.16
2022-08-18T08:05:32.943Z,74.26
2022-08-18T08:06:32.964Z,74.16
2022-08-18T08:07:33.383Z,73.67
2022-08-18T08:08:32.990Z,73.28
2022-08-18T08:09:33.009Z,73.48
2022-08-18T08:10:33.013Z,72.83
2022-08-18T08:11:33.034Z,72.93
2022-08-18T08:12:36.877Z,72.74
2022-08-18T08:13:54.157Z,72.89
2022-08-18T08:14:33.077Z,72.93
2022-08-18T08:16:15.634Z,72.74
2022-08-18T08:17:15.655Z,72.31
2022-08-18T08:18:15.669Z,72.25
2022-08-18T08:19:15.677Z,72.16
2022-08-18T08:20:15.690Z,72.22
2022-08-18T08:21:15.708Z,72.12
2022-08-18T08:23:23.326Z,70.80
2022-08-18T08:24:23.341Z,71.06
2022-08-18T08:29:37.549Z,70.80
2022-08-18T08:32:00.208Z,70.80
2022-08-18T08:33:00.217Z,70.51
2022-08-18T08:45:00.262Z,67.38
2022-08-18T08:45:52.495Z,66.79
2022-08-18T08:46:52.508Z,66.83
2022-08-18T08:47:52.708Z,66.73
2022-08-18T08:48:52.535Z,66.11
2022-08-18T08:50:50.132Z,64.87
2022-08-18T08:51:50.159Z,64.32
2022-08-18T08:52:50.157Z,63.54
2022-08-18T08:53:50.988Z,63.38
2022-08-18T08:54:50.196Z,62.99
2022-08-18T08:55:50.214Z,61.85
2022-08-18T08:56:50.226Z,61.20
2022-08-18T08:57:53.066Z,61.23
2022-08-18T08:59:32.800Z,59.23
2022-08-18T09:01:40.508Z,57.28
2022-08-18T09:02:48.710Z,57.87
2022-08-18T09:03:40.467Z,57.09
2022-08-18T09:04:54.723Z,57.48
2022-08-18T09:06:23.046Z,57.77
2022-08-18T09:07:23.056Z,57.24
2022-08-18T09:41:33.203Z,53.61
2022-08-18T09:42:33.218Z,53.61
2022-08-18T09:43:33.238Z,53.61
2022-08-18T09:44:33.256Z,53.71
2022-08-18T09:46:20.838Z,54.49
2022-08-18T09:47:20.850Z,54.49
2022-08-18T11:22:03.339Z,55.09
2022-08-18T11:23:45.916Z,55.46
2022-08-18T11:24:46.334Z,55.94
2022-08-18T11:25:46.126Z,56.33
2022-08-18T11:30:08.675Z,57.11
2022-08-18T11:31:08.647Z,57.76
2022-08-18T11:33:11.707Z,57.76
2022-08-18T11:34:08.692Z,58.15
2022-08-18T11:35:08.709Z,57.96
2022-08-18T11:36:08.732Z,58.84
2022-08-18T11:43:51.381Z,59.23
2022-08-18T11:44:51.398Z,59.03
2022-08-18T11:46:34.740Z,58.77
2022-08-18T11:47:33.985Z,58.87
2022-08-18T11:48:39.129Z,58.18
2022-08-18T11:49:34.184Z,58.18
2022-08-18T11:50:34.035Z,58.22
2022-08-18T11:51:34.056Z,57.73
2022-08-18T11:52:36.685Z,57.43
2022-08-18T15:30:02.524Z,57.61
2022-08-18T15:33:32.276Z,58.00
2022-08-18T15:34:28.434Z,58.10
2022-08-18T15:35:28.451Z,57.97
2022-08-18T15:36:29.362Z,57.97
2022-08-18T15:37:28.474Z,57.97
2022-08-18T15:38:28.494Z,57.87
2022-08-18T15:39:28.553Z,57.97
2022-08-18T15:40:35.521Z,58.07
2022-08-18T15:49:44.473Z,59.33
2022-08-18T15:50:44.490Z,59.43
2022-08-18T15:51:45.325Z,59.82
2022-08-18T15:52:44.545Z,60.02
2022-08-18T15:53:45.642Z,60.02
2022-08-18T15:54:44.545Z,60.21
2022-08-18T15:55:44.567Z,60.31
2022-08-18T15:56:44.580Z,60.21
2022-08-18T15:57:44.587Z,60.02
2022-08-18T15:58:44.611Z,60.21
2022-08-18T15:59:44.619Z,60.11
2022-08-18T16:00:45.639Z,60.11
2022-08-18T16:01:47.247Z,60.21
2022-08-18T16:02:48.703Z,60.21
2022-08-18T16:03:44.688Z,60.31
2022-08-18T16:04:47.325Z,60.21
2022-08-18T16:05:44.721Z,60.21
2022-08-18T16:06:44.736Z,60.02
2022-08-18T16:07:45.134Z,60.02
2022-08-18T16:08:44.759Z,60.02
2022-08-18T16:09:44.791Z,60.02
2022-08-18T16:10:44.799Z,60.11
2022-08-18T16:11:44.813Z,59.99
2022-08-18T16:12:45.918Z,59.99
2022-08-18T16:13:44.840Z,60.18
2022-08-18T16:14:44.853Z,60.18
2022-08-18T16:15:44.866Z,60.28
2022-08-18T16:16:44.889Z,60.08
2022-08-18T16:17:44.899Z,60.08
2022-08-18T16:18:44.923Z,59.89
2022-08-18T16:19:44.934Z,60.47
2022-08-18T16:20:44.954Z,60.57
2022-08-18T16:21:44.963Z,60.57
2022-08-18T16:22:44.978Z,60.28
2022-08-18T16:23:44.999Z,60.28
2022-08-18T16:24:45.012Z,60.47
2022-08-18T16:25:45.023Z,60.96
2022-08-18T16:26:45.043Z,60.86
2022-08-18T16:27:45.060Z,60.74
2022-08-18T16:28:45.069Z,60.83
2022-08-18T16:29:45.085Z,60.64
2022-08-18T16:30:45.101Z,60.54
2022-08-18T16:31:45.116Z,60.93
2022-08-18T16:32:45.146Z,61.02
2022-08-18T16:33:45.146Z,61.41
2022-08-18T16:34:45.170Z,61.41
2022-08-18T16:35:45.275Z,61.22
2022-08-18T16:36:45.192Z,61.02
2022-08-18T16:37:45.209Z,61.61
2022-08-18T16:38:47.056Z,61.41
2022-08-18T16:39:45.280Z,61.41
2022-08-18T16:40:45.260Z,62.00
2022-08-18T16:41:45.269Z,61.80
2022-08-18T16:42:45.292Z,61.80
2022-08-18T16:43:45.299Z,61.71
2022-08-18T16:44:45.313Z,62.26
2022-08-18T16:45:45.339Z,61.97
2022-08-18T16:46:45.355Z,62.26
2022-08-18T16:47:45.397Z,62.07
2022-08-18T16:48:45.378Z,62.07
2022-08-18T16:49:45.395Z,62.35
2022-08-18T16:50:45.403Z,62.35
2022-08-18T16:51:45.427Z,62.35
2022-08-18T16:52:45.546Z,62.55
2022-08-18T16:53:45.457Z,62.35
2022-08-18T16:54:45.470Z,62.94
2022-08-18T16:55:45.490Z,62.65
2022-08-18T16:56:45.502Z,62.55
2022-08-18T16:57:53.797Z,62.45
2022-08-18T16:58:45.524Z,62.94
2022-08-18T16:59:45.557Z,62.94
2022-08-18T17:00:45.553Z,63.04
2022-08-18T17:01:48.803Z,63.13
2022-08-18T17:02:45.630Z,63.23
2022-08-18T17:03:45.606Z,63.23
2022-08-18T17:04:45.620Z,63.32
2022-08-18T17:05:45.629Z,63.29
2022-08-18T17:06:47.488Z,63.13
2022-08-18T17:07:45.718Z,63.32
2022-08-18T17:08:45.679Z,63.71
2022-08-18T17:09:45.688Z,63.62
2022-08-18T17:10:45.705Z,63.52
2022-08-18T17:11:51.427Z,64.17
2022-08-18T17:12:45.776Z,63.91
2022-08-18T17:13:45.747Z,63.88
2022-08-18T17:14:47.178Z,64.36
2022-08-18T17:15:45.784Z,64.17
2022-08-18T17:16:45.798Z,64.17
2022-08-18T17:17:45.815Z,63.98
2022-08-18T17:18:45.823Z,64.56
2022-08-18T17:19:45.844Z,64.75
2022-08-18T17:20:45.850Z,64.36
2022-08-18T17:21:45.866Z,64.75
2022-08-18T17:22:45.918Z,64.65
2022-08-18T17:23:45.995Z,64.65
2022-08-18T17:24:48.595Z,64.75
2022-08-18T17:30:00.149Z,65.24
2022-08-18T17:31:00.143Z,65.14
2022-08-18T17:32:00.166Z,65.24
2022-08-18T17:33:01.249Z,65.14
2022-08-18T17:34:00.194Z,64.75
2022-08-18T17:35:00.204Z,65.11
2022-08-18T17:36:00.223Z,65.53
2022-08-18T17:37:00.232Z,65.59
2022-08-18T17:38:00.252Z,65.53
2022-08-18T17:39:00.260Z,65.92
2022-08-18T17:40:00.368Z,66.02
2022-08-18T17:42:02.882Z,65.50
2022-08-18T17:43:02.904Z,65.69
2022-08-18T17:44:04.327Z,66.17
2022-08-18T17:45:04.237Z,66.37
2022-08-18T17:46:02.947Z,66.37
2022-08-18T17:47:02.963Z,66.47
2022-08-18T17:48:02.976Z,66.56
2022-08-18T17:49:02.985Z,66.37
2022-08-18T17:50:27.101Z,66.47
2022-08-18T17:51:03.018Z,66.56
2022-08-18T17:52:03.238Z,66.95
2022-08-18T17:53:03.044Z,66.56
2022-08-18T18:07:25.762Z,67.89
2022-08-18T18:08:25.775Z,67.99
2022-08-18T18:13:14.293Z,68.76
2022-08-18T18:14:14.307Z,68.57
2022-08-18T18:15:14.319Z,69.06
2022-08-18T18:16:14.335Z,68.96
2022-08-18T18:17:14.524Z,68.66
2022-08-18T18:18:14.364Z,68.86
2022-08-18T18:19:14.378Z,69.34
2022-08-18T18:20:15.539Z,69.34
2022-08-18T18:21:14.399Z,69.24
2022-08-18T18:22:14.412Z,69.34
2022-08-18T18:23:14.435Z,69.64
2022-08-18T18:24:14.440Z,70.31
2022-08-18T18:25:14.461Z,70.31
2022-08-18T18:26:14.471Z,70.70
2022-08-18T18:27:14.483Z,70.57
2022-08-18T18:28:14.499Z,70.67
2022-08-18T18:29:14.514Z,71.15
2022-08-18T18:30:14.525Z,70.76
2022-08-18T18:31:14.540Z,70.76
2022-08-18T18:32:14.552Z,70.76
2022-08-18T18:33:14.567Z,71.25
2022-08-18T18:34:23.598Z,71.25
2022-08-18T18:35:14.604Z,71.44
2022-08-18T18:36:14.610Z,72.02
2022-08-18T18:37:14.632Z,72.02
2022-08-18T18:38:14.652Z,72.02
2022-08-18T18:39:14.654Z,72.12
2022-08-18T18:40:14.711Z,72.02
2022-08-18T18:41:14.687Z,71.93
2022-08-18T18:42:14.695Z,72.12
2022-08-18T18:43:14.741Z,71.93
2022-08-18T18:44:14.722Z,71.93
2022-08-18T18:45:14.736Z,71.93
2022-08-18T18:46:18.580Z,72.02
2022-08-18T18:47:14.765Z,72.61
2022-08-18T18:48:48.146Z,72.41
2022-08-18T18:49:14.792Z,71.93
2022-08-18T18:50:14.812Z,72.31
2022-08-18T18:51:14.828Z,72.41
2022-08-18T18:52:14.833Z,72.12
2022-08-18T18:53:14.847Z,72.71
2022-08-18T18:54:14.861Z,72.22
2022-08-18T18:55:14.881Z,72.22
2022-08-18T18:56:14.889Z,72.61
2022-08-18T18:57:14.908Z,72.51
2022-08-18T18:58:14.917Z,71.99
2022-08-18T18:59:14.938Z,72.12
2022-08-18T19:00:18.179Z,71.89
2022-08-18T19:01:15.022Z,71.70
2022-08-18T19:02:33.671Z,71.89
2022-08-18T19:03:14.994Z,71.83
2022-08-18T19:04:14.999Z,71.89
2022-08-18T19:05:15.014Z,72.12
2022-08-18T19:06:15.028Z,72.22
2022-08-18T19:07:21.092Z,71.80
2022-08-18T19:08:15.054Z,72.02
2022-08-18T19:09:15.073Z,72.02
2022-08-18T19:10:15.083Z,72.12
2022-08-18T19:11:15.099Z,71.83
2022-08-18T19:12:15.110Z,71.73
2022-08-18T19:13:29.934Z,71.93
2022-08-18T19:14:15.145Z,71.54
2022-08-18T19:15:15.154Z,71.73
2022-08-18T19:16:23.769Z,71.93
2022-08-18T19:17:15.189Z,71.83
2022-08-18T19:18:15.203Z,72.02
2022-08-18T19:19:37.050Z,71.83
2022-08-18T19:20:15.221Z,71.25
2022-08-18T19:22:03.774Z,71.64
2022-08-18T19:22:18.723Z,72.18
2022-08-18T19:23:19.558Z,71.60
2022-08-18T19:24:15.276Z,71.93
2022-08-18T19:25:15.296Z,71.70
2022-08-18T19:26:15.312Z,71.93
2022-08-18T19:27:15.328Z,71.25
2022-08-18T19:28:15.332Z,71.25
2022-08-18T19:29:15.345Z,71.25
2022-08-18T19:30:15.366Z,71.25
2022-08-18T19:31:15.383Z,71.25
2022-08-18T19:32:16.787Z,71.34
2022-08-18T19:33:15.401Z,71.34
2022-08-18T19:34:15.414Z,71.34
2022-08-18T19:35:15.436Z,71.64
2022-08-18T19:36:19.552Z,71.25
2022-08-18T19:37:22.671Z,71.54
2022-08-18T19:38:15.471Z,72.12
2022-08-18T19:39:15.484Z,72.47
2022-08-18T19:40:15.503Z,73.05
2022-08-18T19:41:20.152Z,73.25
2022-08-18T19:42:15.524Z,73.44
2022-08-18T19:43:15.545Z,73.73
2022-08-18T19:44:15.562Z,74.32
2022-08-18T19:45:17.208Z,74.80
2022-08-18T19:46:15.582Z,74.90
2022-08-18T19:47:15.593Z,74.90
2022-08-18T19:48:18.221Z,75.09
2022-08-18T19:49:15.621Z,74.80
2022-08-18T19:50:15.636Z,75.77
2022-08-18T19:51:15.648Z,75.67
2022-08-18T19:52:46.387Z,75.48
2022-08-18T19:53:15.677Z,76.12
2022-08-18T19:54:15.691Z,76.99
2022-08-18T19:55:15.704Z,76.89
2022-08-18T19:56:15.716Z,77.19
2022-08-18T19:57:15.740Z,77.47
2022-08-18T19:58:15.753Z,77.76
2022-08-18T19:59:19.605Z,78.05
2022-08-18T20:00:15.771Z,78.34
2022-08-18T20:01:20.981Z,78.44
2022-08-18T20:02:15.808Z,78.34
2022-08-18T20:03:15.815Z,79.02
2022-08-18T20:04:15.834Z,78.74
2022-08-18T20:05:15.842Z,79.32
2022-08-18T20:06:33.849Z,79.60
2022-08-18T20:07:15.876Z,79.76
2022-08-18T20:08:15.901Z,80.24
2022-08-18T20:09:15.903Z,80.44
2022-08-18T20:10:15.907Z,80.82
2022-08-18T20:11:15.931Z,81.40
2022-08-18T20:12:15.935Z,82.08
2022-08-18T20:13:15.949Z,81.89
2022-08-18T20:14:17.190Z,81.98
2022-08-18T20:15:15.985Z,82.66
2022-08-18T20:16:15.998Z,83.49
2022-08-18T20:17:16.003Z,83.53
2022-08-18T20:18:16.016Z,84.17
2022-08-18T20:19:16.527Z,84.27
2022-08-18T20:20:16.043Z,84.84
2022-08-18T20:21:16.055Z,85.82
2022-08-18T20:22:20.695Z,85.52
2022-08-18T20:23:16.092Z,85.68
2022-08-18T20:24:16.097Z,85.33
2022-08-18T20:25:16.116Z,85.77
2022-08-18T20:26:16.131Z,86.45
2022-08-18T20:27:16.144Z,86.45
2022-08-18T20:28:16.151Z,86.59
2022-08-18T20:29:16.172Z,87.32
2022-08-18T20:30:16.177Z,86.93
2022-08-18T20:31:16.192Z,88.09